Snyder Corner, Pennsylvania
Current Conditions -  °F | °C
As of 12:53 AM on Wednesday 26 Nov 2014 (Local Time) from KTHV Reporting Station
Clear Clear  
Wind Chill: 37°   Ceiling: Unl
Heat Index: 37°   Visibility: 10mi
Dew Point: 33°   Wind: 0mph
Humidity: 86%   Direction: NA
Pressure: 30.16"   Gusts: NA
Location:  39.8974°N, 76.608°W
Report Text: KTHV 260553Z AUTO 00000KT 10SM CLR 03/01 A3016 RMK AO2 SLP218 T00280006 10033 21006 51011
Loading
Personal Weather Stations






























Interactive Weather Map New forecast layout! Learn more

10-Day Weather Forecast

Advertisements
Track Severe Weather on mobile